createdAt,value
2022-12-01T14:04:36.586Z,7.80
2022-12-01T14:07:37.970Z,8.29
2022-12-01T14:10:26.613Z,8.63
2022-12-01T14:13:01.636Z,8.85
2022-12-01T14:15:43.169Z,8.99
2022-12-01T14:18:32.823Z,9.06
2022-12-01T14:21:06.468Z,9.16
2022-12-01T14:23:37.585Z,9.25
2022-12-01T14:26:15.287Z,9.18
2022-12-01T14:29:27.405Z,9.23
2022-12-01T14:32:23.190Z,9.24
2022-12-01T14:34:56.504Z,9.31
2022-12-01T14:37:37.619Z,9.27
2022-12-01T14:40:14.091Z,9.24
2022-12-01T14:42:58.974Z,9.22
2022-12-01T14:45:35.305Z,9.14
2022-12-01T14:48:06.608Z,9.15
2022-12-01T14:50:45.184Z,9.08
2022-12-01T14:53:26.298Z,9.07
2022-12-01T14:55:58.073Z,9.04
2022-12-01T14:58:30.801Z,9.04
2022-12-01T15:01:07.904Z,9.02
2022-12-01T15:03:42.823Z,8.92
2022-12-01T15:06:17.432Z,8.87
2022-12-01T15:09:10.558Z,8.82
2022-12-01T15:11:40.054Z,8.73
2022-12-01T15:14:26.405Z,8.67
2022-12-01T15:16:55.253Z,8.62
2022-12-01T15:21:43.595Z,8.52
2022-12-01T15:24:23.895Z,8.44
2022-12-01T15:27:00.609Z,8.41
2022-12-01T15:29:45.967Z,8.36
2022-12-01T15:32:19.423Z,8.30
2022-12-01T15:34:50.805Z,8.26
2022-12-01T15:37:24.173Z,8.22
2022-12-01T15:40:11.894Z,8.19
2022-12-01T15:42:45.185Z,8.04
2022-12-01T15:45:21.830Z,8.04
2022-12-01T15:47:54.980Z,8.02
2022-12-01T15:50:32.781Z,7.98
2022-12-01T15:53:08.256Z,7.92
2022-12-01T15:55:40.015Z,7.89
2022-12-01T15:58:11.020Z,7.82
2022-12-01T16:00:39.781Z,7.79
2022-12-01T16:03:15.193Z,7.72
2022-12-01T16:05:46.358Z,7.69
2022-12-01T16:08:23.073Z,7.67
2022-12-01T16:11:14.513Z,7.63
2022-12-01T16:13:49.493Z,7.59
2022-12-01T16:16:43.812Z,7.54
2022-12-01T16:19:31.063Z,7.50
2022-12-01T16:22:06.373Z,7.46
2022-12-01T16:24:45.897Z,7.44
2022-12-01T16:27:24.273Z,7.40
2022-12-01T16:29:56.485Z,7.37
2022-12-01T16:32:30.984Z,7.30
2022-12-01T16:35:00.136Z,7.26
2022-12-01T16:37:29.380Z,7.23
2022-12-01T16:40:00.496Z,7.20
2022-12-01T16:42:29.375Z,7.17
2022-12-01T16:44:58.167Z,7.12
2022-12-01T16:47:27.610Z,7.08
2022-12-01T16:49:56.515Z,7.05
2022-12-01T16:55:39.803Z,6.93
2022-12-01T16:58:08.680Z,6.89
2022-12-01T17:00:37.516Z,6.87
2022-12-01T17:03:07.296Z,6.84
2022-12-01T17:05:36.409Z,6.81
2022-12-01T17:08:06.272Z,6.78
2022-12-01T17:10:41.056Z,6.75
2022-12-01T17:13:09.902Z,6.73
2022-12-01T17:15:42.891Z,6.70
2022-12-01T17:18:12.383Z,6.66
2022-12-01T17:20:41.136Z,6.63
2022-12-01T17:23:10.092Z,6.60
2022-12-01T17:25:43.991Z,6.56
2022-12-01T17:28:12.938Z,6.55
2022-12-01T17:30:42.375Z,6.51
2022-12-01T17:33:11.174Z,6.49
2022-12-01T17:35:40.276Z,6.47
2022-12-01T17:38:08.998Z,6.43
2022-12-01T17:40:37.688Z,6.40
2022-12-01T17:43:09.026Z,6.35
2022-12-01T17:45:41.327Z,6.31
2022-12-01T17:48:10.393Z,6.28
2022-12-01T17:50:39.954Z,6.23
2022-12-01T17:53:08.730Z,6.20
2022-12-01T17:55:40.868Z,6.16
2022-12-01T17:58:11.491Z,6.12
2022-12-01T18:00:40.615Z,6.08
2022-12-01T18:03:09.423Z,6.03
2022-12-01T18:05:38.190Z,6.00
2022-12-01T18:08:16.440Z,5.95
2022-12-01T18:10:45.482Z,5.94
2022-12-01T18:13:16.216Z,5.93
2022-12-01T18:15:45.046Z,5.91
2022-12-01T18:18:18.114Z,5.88
2022-12-01T18:20:51.757Z,5.85
2022-12-01T18:23:25.408Z,5.82
2022-12-01T18:25:57.514Z,5.79
2022-12-01T18:28:30.619Z,5.77
2022-12-01T18:31:05.991Z,5.75
2022-12-01T18:33:35.814Z,5.73
2022-12-01T18:36:05.956Z,5.69
2022-12-01T18:38:36.724Z,5.65
2022-12-01T18:41:06.094Z,5.65
2022-12-01T18:43:37.851Z,5.61
2022-12-01T18:46:07.989Z,5.58
2022-12-01T18:48:36.919Z,5.55
2022-12-01T18:51:09.279Z,5.53
2022-12-01T18:53:38.284Z,5.50
2022-12-01T18:56:12.182Z,5.47
2022-12-01T18:58:43.142Z,5.43
2022-12-01T19:01:26.690Z,5.37
2022-12-01T19:03:57.263Z,5.35
2022-12-01T19:06:27.144Z,5.34
2022-12-01T19:08:59.520Z,5.32
2022-12-01T19:11:28.514Z,5.30
2022-12-01T19:13:59.770Z,5.29
2022-12-01T19:16:32.625Z,5.28
2022-12-01T19:19:05.797Z,5.27
2022-12-01T19:21:36.509Z,5.26
2022-12-01T19:24:07.765Z,5.27
2022-12-01T19:26:42.621Z,5.24
2022-12-01T19:29:17.980Z,5.23
2022-12-01T19:31:48.425Z,5.22
2022-12-01T19:34:17.312Z,5.22
2022-12-01T19:36:53.035Z,5.16
2022-12-01T19:39:21.932Z,5.14
2022-12-01T19:41:56.646Z,5.09
2022-12-01T19:44:27.323Z,5.07
2022-12-01T19:46:55.897Z,5.04
2022-12-01T19:49:24.585Z,5.02
2022-12-01T19:51:56.348Z,4.99
2022-12-01T19:54:28.372Z,4.96
2022-12-01T19:56:57.024Z,4.95
2022-12-01T19:59:30.374Z,4.93
2022-12-01T20:01:59.050Z,4.92
2022-12-01T20:04:30.475Z,4.90
2022-12-01T20:07:06.130Z,4.92
2022-12-01T20:09:50.102Z,4.92
2022-12-01T20:12:19.135Z,4.96
2022-12-01T20:14:53.336Z,4.97
2022-12-01T20:17:29.965Z,5.00
2022-12-01T20:19:58.617Z,5.03
2022-12-01T20:22:31.429Z,5.07
2022-12-01T20:25:00.302Z,5.10
2022-12-01T20:27:35.290Z,5.16
2022-12-01T20:30:12.441Z,5.23
2022-12-01T20:32:46.949Z,5.29
2022-12-01T20:35:18.638Z,5.36
2022-12-01T20:37:49.892Z,5.41
2022-12-01T20:40:22.840Z,5.45
2022-12-01T20:42:54.791Z,5.49
2022-12-01T20:45:27.124Z,5.44
2022-12-01T20:47:55.787Z,5.56
2022-12-01T20:51:34.282Z,5.57
2022-12-01T20:57:56.972Z,5.71
2022-12-01T21:00:30.843Z,5.75
2022-12-01T21:02:59.555Z,5.79
2022-12-01T21:06:37.197Z,5.79
2022-12-01T21:09:06.860Z,5.87
2022-12-01T21:11:56.728Z,5.92
2022-12-01T21:14:31.434Z,5.98
2022-12-01T21:17:11.179Z,5.99
2022-12-01T21:19:46.830Z,6.04
2022-12-01T21:22:15.655Z,6.02
2022-12-01T21:24:52.031Z,6.08
2022-12-01T21:27:21.565Z,6.10
2022-12-01T21:29:51.758Z,6.13
2022-12-01T21:32:44.260Z,6.11
2022-12-01T21:35:29.014Z,6.19
2022-12-01T21:40:46.144Z,6.20
2022-12-01T21:44:04.146Z,6.19
2022-12-01T21:47:26.044Z,6.21
2022-12-01T21:50:20.348Z,6.21
2022-12-01T21:53:23.627Z,6.26
2022-12-01T21:56:34.844Z,6.23
2022-12-01T22:00:03.734Z,6.25
2022-12-01T22:06:29.752Z,6.29
2022-12-01T22:09:43.079Z,6.29
2022-12-01T22:13:05.575Z,6.18
2022-12-01T22:15:42.243Z,6.29
2022-12-01T22:18:21.419Z,6.34
2022-12-01T22:20:50.116Z,6.33
2022-12-01T22:23:20.173Z,6.36
2022-12-01T22:25:49.513Z,6.36
2022-12-01T22:28:25.072Z,6.42
2022-12-01T22:30:54.187Z,6.47
2022-12-01T22:33:25.779Z,6.37
2022-12-01T22:35:54.981Z,6.36
2022-12-01T22:38:35.499Z,6.35
2022-12-01T22:41:07.648Z,6.44
2022-12-01T22:43:56.738Z,6.39
2022-12-01T22:46:30.709Z,6.39
2022-12-01T22:49:03.051Z,6.42
2022-12-01T22:51:41.109Z,6.38
2022-12-01T22:54:33.652Z,6.37
2022-12-01T22:57:27.333Z,6.38
2022-12-01T22:59:58.362Z,6.43
2022-12-01T23:02:33.867Z,6.46
2022-12-01T23:05:14.286Z,6.44
2022-12-01T23:07:45.254Z,6.49
2022-12-01T23:10:18.626Z,6.44
2022-12-01T23:12:50.293Z,6.46
2022-12-01T23:15:31.735Z,6.43
2022-12-01T23:18:11.078Z,6.46
2022-12-01T23:20:39.808Z,6.50
2022-12-01T23:23:15.272Z,6.49
2022-12-01T23:25:45.535Z,6.50
2022-12-01T23:28:15.184Z,6.52
2022-12-01T23:30:49.140Z,6.51
2022-12-01T23:33:22.146Z,6.53
2022-12-01T23:35:56.537Z,6.52
2022-12-01T23:38:27.710Z,6.56
2022-12-01T23:41:01.946Z,6.56
2022-12-01T23:43:35.101Z,6.55
2022-12-01T23:46:10.279Z,6.54
2022-12-01T23:48:43.701Z,6.54
2022-12-01T23:51:19.800Z,6.57
2022-12-01T23:53:48.874Z,6.59
2022-12-01T23:56:21.613Z,6.57
2022-12-01T23:58:50.689Z,6.56
